Amunt
Inicio > meteoXarxa
Fes-te'n soci

METEOXARXA

Vistabella del Maestrat
Ubicació Sant Joan de Penyagolosa
Comarca l′Alcalatén
Altitud (msnm) 1285
Posició geogràfica 40° 15' 4.00" N, 00° 21' 21.00" W
Model Davis Vantage Pro2 calefactada
Presa de dades
Font de les dades AVAMET
Estadístiques. Resum
Data Temperatura (ºC) Humitat (%) Pressió (hPa) Vent (km/h) Precipit. (mm)
Mínima Mitjana Màxima Mínima Mitjana Màxima Mínima Mitjana Màxima Predom. Mitjana Ràfega màxima Total Dies de pluja
Mínima Mitjana Màxima Mínima Mitjana Màxima
Últimes dades diàries
18-01-2017 -13,8     -7,8     -0,4 E 4,5 29,0 0,0  
17-01-2017 -8,8     -1,4     3,7 E 9,7 72,4 0,0  
16-01-2017 1,0     3,1     5,6 WSW 14,0 57,9 0,0  
15-01-2017 -2,3     0,6     3,1 WSW 12,4 67,6 0,0  
14-01-2017 -2,4     -1,1     1,5 WSW 12,6 59,5 0,0  
13-01-2017 -1,8     2,7     8,4 WSW 11,3 46,7 0,0  
12-01-2017 -0,3     7,7     15,2 WSW 6,8 43,5 0,0  
11-01-2017 2,8     5,4     7,8 E 10,1 54,7 0,0  
10-01-2017 -1,3     3,8     6,0 WSW 12,1 72,4 0,0  
09-01-2017 -4,6     0,1     7,9 WSW 4,7 20,9 0,0  
08-01-2017 -4,4     1,3     10,8 SW 4,0 17,7 0,0  
07-01-2017 -4,3     0,6     8,5 WSW 4,5 20,9 0,0  
06-01-2017 -5,1     -0,2     7,0 W 5,3 20,9 0,0  
05-01-2017 -3,0     5,3     10,8 E 6,8 38,6 0,0  
04-01-2017 0,7     6,2     10,8 W 6,6 38,6 0,0  
03-01-2017 -1,1     5,7     11,8 WSW 4,5 30,6 0,0  
02-01-2017 -5,2     1,6     7,7 WSW 5,3 25,7 0,0  
01-01-2017 -4,9     0,2     7,1 WSW 5,0 22,5 0,2  
31-12-2016 -6,2     0,2     5,7 WSW 6,3 27,4 0,2  
30-12-2016 -2,9     1,4     10,1 WSW 4,5 19,3 0,0  
29-12-2016 -2,7     3,0     15,7 SW 4,2 16,1 0,0  
28-12-2016 -3,1     1,3     11,0 SW 3,7 22,5 0,0  
27-12-2016 -0,3     4,7     14,0 SW 2,6 11,3 0,0  
26-12-2016 1,5     6,4     16,3 SW 5,0 20,9 0,0  
25-12-2016 -2,5     4,3     15,6 WSW 3,5 12,9 0,2  
24-12-2016 -2,1     2,1     8,4 WSW 3,5 24,1 0,4  
23-12-2016 -1,2     3,5     9,3 WSW 2,4 16,1 0,2  
22-12-2016 -2,9     2,2     9,2 SW 2,1 14,5 0,4  
21-12-2016 -2,1     2,1     7,2 E 6,6 37,0 0,0  
20-12-2016 -0,2     2,2     6,1 E 7,4 38,6 0,0  
19-12-2016 0,0     0,6     1,2 E 10,6 37,0 11,8  
18-12-2016 -0,2     1,1     2,2 E 12,9 43,5 17,8  
Dades del mes en curs (actualitzades fins l'últim dia disponible)
01/2017 -13,8 -3,3 2,8 1,9 -0,4 7,4 15,2   7,8 72,4 0,2  
Últimes dades mensuals
12/2016 -6,2 -0,8 5,7 3,1 1,2 8,7 16,3 5,4 67,6 184,0 22
11/2016 -5,2 1,0 7,3 5,4 3,8 10,1 19,1 6,8 59,5 171,6 12
10/2016 2,2 6,6 10,7 11,2 9,7 16,7 22,3 4,9 41,8 41,4 23
09/2016 2,5 9,4 16,5 14,9 13,8 20,9 31,7 5,6 49,9 50,2 14
08/2016 6,2 11,0 16,4 17,8 17,6 24,2 29,2 5,8 37,0 28,0 13
07/2016 1,7 11,9 18,3 18,7 18,6 25,1 30,0 6,1 59,5 30,8 9
06/2016 2,4 8,9 15,8 15,5 15,2 21,7 27,7 6,3 45,1 46,8 9
05/2016 -4,6 4,4 9,6 10,2 8,0 15,4 21,4 7,0 53,1 81,4 13
04/2016 -3,6 1,7 5,3 6,7 5,2 11,6 16,6 7,6 59,5 53,8 13
03/2016 -7,2 -0,2 6,7 4,4 2,4 8,9 17,9 8,2 57,9 26,4 10
02/2016 -9,6 -0,8 8,9 4,0 0,4 9,1 15,2 9,7 85,3 19,0 9
01/2016 -5,1 0,5 8,7 4,9 1,6 9,4 14,3 9,1 83,7 3,0 10
12/2015 -2,6 0,9 4,3 5,8 6,2 12,3 17,1 4,9 37,0 1,8 6
Dades de l'any en curs (actualitzades fins l'últim dia disponible)
2017 -13,8 -3,3 2,8 1,9 -0,4 7,4 15,2   7,8 72,4 0,2  
Últimes dades anuals